Aviation Digital Data Service (ADDS)

Output produced by METARs form (0204 UTC 22 April 2019)
found at http://www.aviationweather.gov/metar/data/
 
METAR text: RJAA 220130Z VRB02KT 9999 FEW020 BKN/// 22/16 Q1013 BECMG 08005KT RMK 1CU020 A2992
Conditions at: RJAA (NARITA INTL , JP) observed 0130 UTC 22 April 2019
Temperature: 22.0°C (72°F)
Dewpoint: 16.0°C (61°F) [RH = 69%]
Pressure (altimeter): 29.91 inches Hg (1013.0 mb)
Winds: variable direction winds at 2 MPH (2 knots; 1.0 m/s)
Visibility: 6 or more miles (10+ km)
Ceiling: at least 12,000 feet AGL
Clouds: few clouds at 2000 feet AGL
Weather: no significant weather observed at this time

METAR text: RJAA 220100Z VRB03KT 9999 FEW020 BKN/// 21/16 Q1013 BECMG 08005KT RMK 1CU020 A2992
Conditions at: RJAA (NARITA INTL , JP) observed 0100 UTC 22 April 2019
Temperature: 21.0°C (70°F)
Dewpoint: 16.0°C (61°F) [RH = 73%]
Pressure (altimeter): 29.91 inches Hg (1013.0 mb)
Winds: variable direction winds at 3 MPH (3 knots; 1.5 m/s)
Visibility: 6 or more miles (10+ km)
Ceiling: at least 12,000 feet AGL
Clouds: few clouds at 2000 feet AGL
Weather: no significant weather observed at this time

METAR text: RJAA 220030Z 01004KT 320V060 8000 FEW020 SCT120 BKN/// 19/15 Q1013 NOSIG
Conditions at: RJAA (NARITA INTL , JP) observed 0030 UTC 22 April 2019
Temperature: 19.0°C (66°F)
Dewpoint: 15.0°C (59°F) [RH = 78%]
Pressure (altimeter): 29.91 inches Hg (1013.0 mb)
Winds: from the N (10 degrees) at 5 MPH (4 knots; 2.1 m/s)
Visibility: 5 miles ( 8 km)
Ceiling: at least 12,000 feet AGL
Clouds: few clouds at 2000 feet AGL
scattered clouds at 12000 feet AGL
Weather: no significant weather observed at this time

METAR text: RJAA 220000Z 36005KT 330V090 8000 FEW020 BKN080 BKN120 19/14 Q1013 NOSIG RMK 1CU020 5AC080 7AC120 A2993
Conditions at: RJAA (NARITA INTL , JP) observed 0000 UTC 22 April 2019
Temperature: 19.0°C (66°F)
Dewpoint: 14.0°C (57°F) [RH = 73%]
Pressure (altimeter): 29.91 inches Hg (1013.0 mb)
Winds: from the N (360 degrees) at 6 MPH (5 knots; 2.6 m/s)
Visibility: 5 miles ( 8 km)
Ceiling: 8000 feet AGL
Clouds: few clouds at 2000 feet AGL
broken clouds at 8000 feet AGL
broken clouds at 12000 feet AGL
Weather: no significant weather observed at this time

METAR text: RJAA 212330Z 03003KT 340V080 8000 FEW020 BKN080 18/14 Q1013 NOSIG RMK 1CU020 7AC080 A2993
Conditions at: RJAA (NARITA INTL , JP) observed 2330 UTC 21 April 2019
Temperature: 18.0°C (64°F)
Dewpoint: 14.0°C (57°F) [RH = 77%]
Pressure (altimeter): 29.91 inches Hg (1013.0 mb)
Winds: from the NNE (30 degrees) at 3 MPH (3 knots; 1.5 m/s)
Visibility: 5 miles ( 8 km)
Ceiling: 8000 feet AGL
Clouds: few clouds at 2000 feet AGL
broken clouds at 8000 feet AGL
Weather: no significant weather observed at this time

METAR text: RJAA 212300Z VRB02KT 8000 FEW020 BKN080 BKN120 17/14 Q1013 BECMG 02006KT RMK 1CU020 6AC080 7AC120 A2992
Conditions at: RJAA (NARITA INTL , JP) observed 2300 UTC 21 April 2019
Temperature: 17.0°C (63°F)
Dewpoint: 14.0°C (57°F) [RH = 82%]
Pressure (altimeter): 29.91 inches Hg (1013.0 mb)
Winds: variable direction winds at 2 MPH (2 knots; 1.0 m/s)
Visibility: 5 miles ( 8 km)
Ceiling: 8000 feet AGL
Clouds: few clouds at 2000 feet AGL
broken clouds at 8000 feet AGL
broken clouds at 12000 feet AGL
Weather: no significant weather observed at this time

METAR text: RJAA 212230Z 01005KT 330V040 8000 FEW020 BKN120 BKN/// 16/14 Q1013 NOSIG
Conditions at: RJAA (NARITA INTL , JP) observed 2230 UTC 21 April 2019
Temperature: 16.0°C (61°F)
Dewpoint: 14.0°C (57°F) [RH = 88%]
Pressure (altimeter): 29.91 inches Hg (1013.0 mb)
Winds: from the N (10 degrees) at 6 MPH (5 knots; 2.6 m/s)
Visibility: 5 miles ( 8 km)
Ceiling: 12000 feet AGL
Clouds: few clouds at 2000 feet AGL
broken clouds at 12000 feet AGL
Weather: no significant weather observed at this time

METAR text: RJAA 212200Z 02004KT 350V050 8000 FEW020 BKN100 BKN/// 15/13 Q1013 NOSIG
Conditions at: RJAA (NARITA INTL , JP) observed 2200 UTC 21 April 2019
Temperature: 15.0°C (59°F)
Dewpoint: 13.0°C (55°F) [RH = 88%]
Pressure (altimeter): 29.91 inches Hg (1013.0 mb)
Winds: from the NNE (20 degrees) at 5 MPH (4 knots; 2.1 m/s)
Visibility: 5 miles ( 8 km)
Ceiling: 10000 feet AGL
Clouds: few clouds at 2000 feet AGL
broken clouds at 10000 feet AGL
Weather: no significant weather observed at this time

METAR text: RJAA 212130Z 01003KT 7000 FEW010 BKN100 14/13 Q1013 NOSIG RMK 1ST010 5AC100 A2991
Conditions at: RJAA (NARITA INTL , JP) observed 2130 UTC 21 April 2019
Temperature: 14.0°C (57°F)
Dewpoint: 13.0°C (55°F) [RH = 94%]
Pressure (altimeter): 29.91 inches Hg (1013.0 mb)
Winds: from the N (10 degrees) at 3 MPH (3 knots; 1.5 m/s)
Visibility: 4 miles ( 7 km)
Ceiling: 10000 feet AGL
Clouds: few clouds at 1000 feet AGL
broken clouds at 10000 feet AGL
Weather: no significant weather observed at this time

METAR text: RJAA 212100Z VRB01KT 7000 FEW010 BKN110 13/12 Q1012 NOSIG RMK 1ST010 6AC110 A2990
Conditions at: RJAA (NARITA INTL , JP) observed 2100 UTC 21 April 2019
Temperature: 13.0°C (55°F)
Dewpoint: 12.0°C (54°F) [RH = 94%]
Pressure (altimeter): 29.88 inches Hg (1012.0 mb)
Winds: variable direction winds at 1 MPH (1 knots; 0.5 m/s)
Visibility: 4 miles ( 7 km)
Ceiling: 11000 feet AGL
Clouds: few clouds at 1000 feet AGL
broken clouds at 11000 feet AGL
Weather: no significant weather observed at this time

METAR text: RJAA 212030Z VRB01KT 6000 FEW030 BKN110 13/12 Q1012 TEMPO 4000 BR
Conditions at: RJAA (NARITA INTL , JP) observed 2030 UTC 21 April 2019
Temperature: 13.0°C (55°F)
Dewpoint: 12.0°C (54°F) [RH = 94%]
Pressure (altimeter): 29.88 inches Hg (1012.0 mb)
Winds: variable direction winds at 1 MPH (1 knots; 0.5 m/s)
Visibility: 4 miles ( 6 km)
Ceiling: 11000 feet AGL
Clouds: few clouds at 3000 feet AGL
broken clouds at 11000 feet AGL
Weather: no significant weather observed at this time

METAR text: RJAA 212000Z 03002KT 5000 BR FEW030 BKN120 13/12 Q1012 TEMPO 4000 BR
Conditions at: RJAA (NARITA INTL , JP) observed 2000 UTC 21 April 2019
Temperature: 13.0°C (55°F)
Dewpoint: 12.0°C (54°F) [RH = 94%]
Pressure (altimeter): 29.88 inches Hg (1012.0 mb)
Winds: from the NNE (30 degrees) at 2 MPH (2 knots; 1.0 m/s)
Visibility: 3 miles ( 5 km)
Ceiling: 12000 feet AGL
Clouds: few clouds at 3000 feet AGL
broken clouds at 12000 feet AGL
Weather: BR  (mist)

METAR text: RJAA 211930Z 01004KT 6000 NSC 13/12 Q1012 NOSIG RMK 3AC120 A2989
Conditions at: RJAA (NARITA INTL , JP) observed 1930 UTC 21 April 2019
Temperature: 13.0°C (55°F)
Dewpoint: 12.0°C (54°F) [RH = 94%]
Pressure (altimeter): 29.88 inches Hg (1012.0 mb)
Winds: from the N (10 degrees) at 5 MPH (4 knots; 2.1 m/s)
Visibility: 4 miles ( 6 km)
Ceiling: at least 12,000 feet AGL
Clouds: sky clear below 12,000 feet AGL
Weather: no significant weather observed at this time

METAR text: RJAA 211900Z 01003KT 6000 SCT040 BKN170 13/12 Q1012 NOSIG RMK 3SC040 7AC170 A2989
Conditions at: RJAA (NARITA INTL , JP) observed 1900 UTC 21 April 2019
Temperature: 13.0°C (55°F)
Dewpoint: 12.0°C (54°F) [RH = 94%]
Pressure (altimeter): 29.88 inches Hg (1012.0 mb)
Winds: from the N (10 degrees) at 3 MPH (3 knots; 1.5 m/s)
Visibility: 4 miles ( 6 km)
Ceiling: 17000 feet AGL
Clouds: scattered clouds at 4000 feet AGL
broken clouds at 17000 feet AGL
Weather: no significant weather observed at this time

METAR text: RJAA 211830Z 01004KT 8000 SCT040 BKN120 13/12 Q1012 NOSIG RMK 3SC040 7AC120 A2989
Conditions at: RJAA (NARITA INTL , JP) observed 1830 UTC 21 April 2019
Temperature: 13.0°C (55°F)
Dewpoint: 12.0°C (54°F) [RH = 94%]
Pressure (altimeter): 29.88 inches Hg (1012.0 mb)
Winds: from the N (10 degrees) at 5 MPH (4 knots; 2.1 m/s)
Visibility: 5 miles ( 8 km)
Ceiling: 12000 feet AGL
Clouds: scattered clouds at 4000 feet AGL
broken clouds at 12000 feet AGL
Weather: no significant weather observed at this time

METAR text: RJAA 211800Z 07002KT 8000 FEW040 BKN/// 13/13 Q1011 NOSIG RMK 1SC040 A2988
Conditions at: RJAA (NARITA INTL , JP) observed 1800 UTC 21 April 2019
Temperature: 13.0°C (55°F)
Dewpoint: 13.0°C (55°F) [RH = 100%]
Pressure (altimeter): 29.85 inches Hg (1011.0 mb)
Winds: from the ENE (70 degrees) at 2 MPH (2 knots; 1.0 m/s)
Visibility: 5 miles ( 8 km)
Ceiling: at least 12,000 feet AGL
Clouds: few clouds at 4000 feet AGL
Weather: no significant weather observed at this time

METAR text: RJAA 211730Z 05003KT 030V090 8000 SCT040 BKN160 BKN180 13/12 Q1012 NOSIG RMK 3SC040 6AC160 7AC180 A2988
Conditions at: RJAA (NARITA INTL , JP) observed 1730 UTC 21 April 2019
Temperature: 13.0°C (55°F)
Dewpoint: 12.0°C (54°F) [RH = 94%]
Pressure (altimeter): 29.88 inches Hg (1012.0 mb)
Winds: from the NE (50 degrees) at 3 MPH (3 knots; 1.5 m/s)
Visibility: 5 miles ( 8 km)
Ceiling: 16000 feet AGL
Clouds: scattered clouds at 4000 feet AGL
broken clouds at 16000 feet AGL
broken clouds at 18000 feet AGL
Weather: no significant weather observed at this time

METAR text: RJAA 211700Z 01003KT 8000 SCT040 BKN110 BKN180 14/12 Q1012 NOSIG RMK 3SC040 6AC110 7AC180 A2989
Conditions at: RJAA (NARITA INTL , JP) observed 1700 UTC 21 April 2019
Temperature: 14.0°C (57°F)
Dewpoint: 12.0°C (54°F) [RH = 88%]
Pressure (altimeter): 29.88 inches Hg (1012.0 mb)
Winds: from the N (10 degrees) at 3 MPH (3 knots; 1.5 m/s)
Visibility: 5 miles ( 8 km)
Ceiling: 11000 feet AGL
Clouds: scattered clouds at 4000 feet AGL
broken clouds at 11000 feet AGL
broken clouds at 18000 feet AGL
Weather: no significant weather observed at this time

METAR text: RJAA 211630Z 09003KT 070V130 8000 SCT040 BKN110 BKN160 14/13 Q1012 NOSIG RMK 3SC040 6AC110 7AC160 A2988
Conditions at: RJAA (NARITA INTL , JP) observed 1630 UTC 21 April 2019
Temperature: 14.0°C (57°F)
Dewpoint: 13.0°C (55°F) [RH = 94%]
Pressure (altimeter): 29.88 inches Hg (1012.0 mb)
Winds: from the E (90 degrees) at 3 MPH (3 knots; 1.5 m/s)
Visibility: 5 miles ( 8 km)
Ceiling: 11000 feet AGL
Clouds: scattered clouds at 4000 feet AGL
broken clouds at 11000 feet AGL
broken clouds at 16000 feet AGL
Weather: no significant weather observed at this time

METAR text: RJAA 211600Z 03003KT 8000 FEW030 BKN040 BKN160 14/13 Q1012 NOSIG RMK 2SC030 6SC040 7AC160 A2989
Conditions at: RJAA (NARITA INTL , JP) observed 1600 UTC 21 April 2019
Temperature: 14.0°C (57°F)
Dewpoint: 13.0°C (55°F) [RH = 94%]
Pressure (altimeter): 29.88 inches Hg (1012.0 mb)
Winds: from the NNE (30 degrees) at 3 MPH (3 knots; 1.5 m/s)
Visibility: 5 miles ( 8 km)
Ceiling: 4000 feet AGL
Clouds: few clouds at 3000 feet AGL
broken clouds at 4000 feet AGL
broken clouds at 16000 feet AGL
Weather: no significant weather observed at this time

METAR text: RJAA 211530Z 02003KT 8000 FEW030 BKN040 14/13 Q1012 NOSIG RMK 2SC030 7SC040 A2989
Conditions at: RJAA (NARITA INTL , JP) observed 1530 UTC 21 April 2019
Temperature: 14.0°C (57°F)
Dewpoint: 13.0°C (55°F) [RH = 94%]
Pressure (altimeter): 29.88 inches Hg (1012.0 mb)
Winds: from the NNE (20 degrees) at 3 MPH (3 knots; 1.5 m/s)
Visibility: 5 miles ( 8 km)
Ceiling: 4000 feet AGL
Clouds: few clouds at 3000 feet AGL
broken clouds at 4000 feet AGL
Weather: no significant weather observed at this time

METAR text: RJAA 211500Z VRB02KT 8000 FEW030 BKN040 15/13 Q1012 NOSIG RMK 2SC030 7SC040 A2990
Conditions at: RJAA (NARITA INTL , JP) observed 1500 UTC 21 April 2019
Temperature: 15.0°C (59°F)
Dewpoint: 13.0°C (55°F) [RH = 88%]
Pressure (altimeter): 29.88 inches Hg (1012.0 mb)
Winds: variable direction winds at 2 MPH (2 knots; 1.0 m/s)
Visibility: 5 miles ( 8 km)
Ceiling: 4000 feet AGL
Clouds: few clouds at 3000 feet AGL
broken clouds at 4000 feet AGL
Weather: no significant weather observed at this time

METAR text: RJAA 211430Z VRB02KT 8000 FEW030 BKN040 15/13 Q1012 NOSIG RMK 2SC030 7SC040 A2990
Conditions at: RJAA (NARITA INTL , JP) observed 1430 UTC 21 April 2019
Temperature: 15.0°C (59°F)
Dewpoint: 13.0°C (55°F) [RH = 88%]
Pressure (altimeter): 29.88 inches Hg (1012.0 mb)
Winds: variable direction winds at 2 MPH (2 knots; 1.0 m/s)
Visibility: 5 miles ( 8 km)
Ceiling: 4000 feet AGL
Clouds: few clouds at 3000 feet AGL
broken clouds at 4000 feet AGL
Weather: no significant weather observed at this time

METAR text: RJAA 211400Z 02004KT 350V050 8000 FEW030 BKN040 15/13 Q1012 NOSIG RMK 2SC030 7SC040 A2991
Conditions at: RJAA (NARITA INTL , JP) observed 1400 UTC 21 April 2019
Temperature: 15.0°C (59°F)
Dewpoint: 13.0°C (55°F) [RH = 88%]
Pressure (altimeter): 29.88 inches Hg (1012.0 mb)
Winds: from the NNE (20 degrees) at 5 MPH (4 knots; 2.1 m/s)
Visibility: 5 miles ( 8 km)
Ceiling: 4000 feet AGL
Clouds: few clouds at 3000 feet AGL
broken clouds at 4000 feet AGL
Weather: no significant weather observed at this time

METAR text: RJAA 211330Z 04003KT 8000 SCT030 BKN040 15/13 Q1012 NOSIG RMK 3SC030 7SC040 A2991
Conditions at: RJAA (NARITA INTL , JP) observed 1330 UTC 21 April 2019
Temperature: 15.0°C (59°F)
Dewpoint: 13.0°C (55°F) [RH = 88%]
Pressure (altimeter): 29.88 inches Hg (1012.0 mb)
Winds: from the NE (40 degrees) at 3 MPH (3 knots; 1.5 m/s)
Visibility: 5 miles ( 8 km)
Ceiling: 4000 feet AGL
Clouds: scattered clouds at 3000 feet AGL
broken clouds at 4000 feet AGL
Weather: no significant weather observed at this time

METAR text: RJAA 211300Z 04004KT 340V060 9999 BKN030 BKN040 15/13 Q1012 NOSIG RMK 5SC030 7SC040 A2991
Conditions at: RJAA (NARITA INTL , JP) observed 1300 UTC 21 April 2019
Temperature: 15.0°C (59°F)
Dewpoint: 13.0°C (55°F) [RH = 88%]
Pressure (altimeter): 29.88 inches Hg (1012.0 mb)
Winds: from the NE (40 degrees) at 5 MPH (4 knots; 2.1 m/s)
Visibility: 6 or more miles (10+ km)
Ceiling: 3000 feet AGL
Clouds: broken clouds at 3000 feet AGL
broken clouds at 4000 feet AGL
Weather: no significant weather observed at this time

METAR text: RJAA 211230Z 05004KT 010V080 9999 BKN030 15/13 Q1012 NOSIG RMK 7SC030 A2991
Conditions at: RJAA (NARITA INTL , JP) observed 1230 UTC 21 April 2019
Temperature: 15.0°C (59°F)
Dewpoint: 13.0°C (55°F) [RH = 88%]
Pressure (altimeter): 29.88 inches Hg (1012.0 mb)
Winds: from the NE (50 degrees) at 5 MPH (4 knots; 2.1 m/s)
Visibility: 6 or more miles (10+ km)
Ceiling: 3000 feet AGL
Clouds: broken clouds at 3000 feet AGL
Weather: no significant weather observed at this time

METAR text: RJAA 211200Z 09004KT 010V120 9999 BKN030 15/13 Q1012 BECMG 05005KT
Conditions at: RJAA (NARITA INTL , JP) observed 1200 UTC 21 April 2019
Temperature: 15.0°C (59°F)
Dewpoint: 13.0°C (55°F) [RH = 88%]
Pressure (altimeter): 29.88 inches Hg (1012.0 mb)
Winds: from the E (90 degrees) at 5 MPH (4 knots; 2.1 m/s)
Visibility: 6 or more miles (10+ km)
Ceiling: 3000 feet AGL
Clouds: broken clouds at 3000 feet AGL
Weather: no significant weather observed at this time

METAR text: RJAA 211130Z 07004KT 030V110 9999 BKN030 16/13 Q1013 BECMG 05005KT
Conditions at: RJAA (NARITA INTL , JP) observed 1130 UTC 21 April 2019
Temperature: 16.0°C (61°F)
Dewpoint: 13.0°C (55°F) [RH = 82%]
Pressure (altimeter): 29.91 inches Hg (1013.0 mb)
Winds: from the ENE (70 degrees) at 5 MPH (4 knots; 2.1 m/s)
Visibility: 6 or more miles (10+ km)
Ceiling: 3000 feet AGL
Clouds: broken clouds at 3000 feet AGL
Weather: no significant weather observed at this time

METAR text: RJAA 211100Z 06004KT 360V100 9999 BKN030 16/14 Q1013 BECMG 05006KT RMK 7SC030 A2991
Conditions at: RJAA (NARITA INTL , JP) observed 1100 UTC 21 April 2019
Temperature: 16.0°C (61°F)
Dewpoint: 14.0°C (57°F) [RH = 88%]
Pressure (altimeter): 29.91 inches Hg (1013.0 mb)
Winds: from the ENE (60 degrees) at 5 MPH (4 knots; 2.1 m/s)
Visibility: 6 or more miles (10+ km)
Ceiling: 3000 feet AGL
Clouds: broken clouds at 3000 feet AGL
Weather: no significant weather observed at this time

METAR text: RJAA 211030Z 07004KT 020V110 9999 SCT030 BKN040 16/13 Q1012 BECMG 05006KT
Conditions at: RJAA (NARITA INTL , JP) observed 1030 UTC 21 April 2019
Temperature: 16.0°C (61°F)
Dewpoint: 13.0°C (55°F) [RH = 82%]
Pressure (altimeter): 29.88 inches Hg (1012.0 mb)
Winds: from the ENE (70 degrees) at 5 MPH (4 knots; 2.1 m/s)
Visibility: 6 or more miles (10+ km)
Ceiling: 4000 feet AGL
Clouds: scattered clouds at 3000 feet AGL
broken clouds at 4000 feet AGL
Weather: no significant weather observed at this time

METAR text: RJAA 211000Z 06005KT 020V090 9999 SCT030 BKN045 BKN160 16/13 Q1012 BECMG 05006KT RMK 3SC030 5SC045 7AC160 A2989
Conditions at: RJAA (NARITA INTL , JP) observed 1000 UTC 21 April 2019
Temperature: 16.0°C (61°F)
Dewpoint: 13.0°C (55°F) [RH = 82%]
Pressure (altimeter): 29.88 inches Hg (1012.0 mb)
Winds: from the ENE (60 degrees) at 6 MPH (5 knots; 2.6 m/s)
Visibility: 6 or more miles (10+ km)
Ceiling: 4500 feet AGL
Clouds: scattered clouds at 3000 feet AGL
broken clouds at 4500 feet AGL
broken clouds at 16000 feet AGL
Weather: no significant weather observed at this time

METAR text: RJAA 210930Z 05004KT 360V110 9999 FEW030 SCT045 BKN160 16/13 Q1012 NOSIG RMK 1SC030 3SC045 7AC160 A2989
Conditions at: RJAA (NARITA INTL , JP) observed 0930 UTC 21 April 2019
Temperature: 16.0°C (61°F)
Dewpoint: 13.0°C (55°F) [RH = 82%]
Pressure (altimeter): 29.88 inches Hg (1012.0 mb)
Winds: from the NE (50 degrees) at 5 MPH (4 knots; 2.1 m/s)
Visibility: 6 or more miles (10+ km)
Ceiling: 16000 feet AGL
Clouds: few clouds at 3000 feet AGL
scattered clouds at 4500 feet AGL
broken clouds at 16000 feet AGL
Weather: no significant weather observed at this time

METAR text: RJAA 210900Z 03006KT 340V080 9999 SCT030 BKN045 BKN180 16/13 Q1011 NOSIG RMK 3SC030 5SC045 7AC180 A2988
Conditions at: RJAA (NARITA INTL , JP) observed 0900 UTC 21 April 2019
Temperature: 16.0°C (61°F)
Dewpoint: 13.0°C (55°F) [RH = 82%]
Pressure (altimeter): 29.85 inches Hg (1011.0 mb)
Winds: from the NNE (30 degrees) at 7 MPH (6 knots; 3.1 m/s)
Visibility: 6 or more miles (10+ km)
Ceiling: 4500 feet AGL
Clouds: scattered clouds at 3000 feet AGL
broken clouds at 4500 feet AGL
broken clouds at 18000 feet AGL
Weather: no significant weather observed at this time

METAR text: RJAA 210830Z 06006KT 010V090 9999 SCT030 BKN/// 17/13 Q1011 BECMG 05007KT
Conditions at: RJAA (NARITA INTL , JP) observed 0830 UTC 21 April 2019
Temperature: 17.0°C (63°F)
Dewpoint: 13.0°C (55°F) [RH = 77%]
Pressure (altimeter): 29.85 inches Hg (1011.0 mb)
Winds: from the ENE (60 degrees) at 7 MPH (6 knots; 3.1 m/s)
Visibility: 6 or more miles (10+ km)
Ceiling: at least 12,000 feet AGL
Clouds: scattered clouds at 3000 feet AGL
Weather: no significant weather observed at this time

METAR text: RJAA 210800Z 06008KT 010V080 9999 SCT030 BKN/// 17/13 Q1011 BECMG 05007KT RMK 4SC030 A2987
Conditions at: RJAA (NARITA INTL , JP) observed 0800 UTC 21 April 2019
Temperature: 17.0°C (63°F)
Dewpoint: 13.0°C (55°F) [RH = 77%]
Pressure (altimeter): 29.85 inches Hg (1011.0 mb)
Winds: from the ENE (60 degrees) at 9 MPH (8 knots; 4.1 m/s)
Visibility: 6 or more miles (10+ km)
Ceiling: at least 12,000 feet AGL
Clouds: scattered clouds at 3000 feet AGL
Weather: no significant weather observed at this time

METAR text: RJAA 210730Z 05008KT 010V080 9999 FEW020 BKN030 17/12 Q1011 NOSIG RMK 1CU020 7SC030 A2988
Conditions at: RJAA (NARITA INTL , JP) observed 0730 UTC 21 April 2019
Temperature: 17.0°C (63°F)
Dewpoint: 12.0°C (54°F) [RH = 72%]
Pressure (altimeter): 29.85 inches Hg (1011.0 mb)
Winds: from the NE (50 degrees) at 9 MPH (8 knots; 4.1 m/s)
Visibility: 6 or more miles (10+ km)
Ceiling: 3000 feet AGL
Clouds: few clouds at 2000 feet AGL
broken clouds at 3000 feet AGL
Weather: no significant weather observed at this time

METAR text: RJAA 210700Z 04009KT 010V080 9999 FEW020 BKN030 17/12 Q1011 NOSIG RMK 2CU020 7SC030 A2988
Conditions at: RJAA (NARITA INTL , JP) observed 0700 UTC 21 April 2019
Temperature: 17.0°C (63°F)
Dewpoint: 12.0°C (54°F) [RH = 72%]
Pressure (altimeter): 29.85 inches Hg (1011.0 mb)
Winds: from the NE (40 degrees) at 10 MPH (9 knots; 4.6 m/s)
Visibility: 6 or more miles (10+ km)
Ceiling: 3000 feet AGL
Clouds: few clouds at 2000 feet AGL
broken clouds at 3000 feet AGL
Weather: no significant weather observed at this time

METAR text: RJAA 210630Z 05007KT 020V090 9999 FEW020 BKN030 BKN110 18/12 Q1011 NOSIG RMK 1CU020 5SC030 7AC110 A2987
Conditions at: RJAA (NARITA INTL , JP) observed 0630 UTC 21 April 2019
Temperature: 18.0°C (64°F)
Dewpoint: 12.0°C (54°F) [RH = 68%]
Pressure (altimeter): 29.85 inches Hg (1011.0 mb)
Winds: from the NE (50 degrees) at 8 MPH (7 knots; 3.6 m/s)
Visibility: 6 or more miles (10+ km)
Ceiling: 3000 feet AGL
Clouds: few clouds at 2000 feet AGL
broken clouds at 3000 feet AGL
broken clouds at 11000 feet AGL
Weather: no significant weather observed at this time

METAR text: RJAA 210600Z 06008KT 030V110 9999 FEW020 BKN030 BKN110 18/13 Q1011 BECMG 05007KT
Conditions at: RJAA (NARITA INTL , JP) observed 0600 UTC 21 April 2019
Temperature: 18.0°C (64°F)
Dewpoint: 13.0°C (55°F) [RH = 73%]
Pressure (altimeter): 29.85 inches Hg (1011.0 mb)
Winds: from the ENE (60 degrees) at 9 MPH (8 knots; 4.1 m/s)
Visibility: 6 or more miles (10+ km)
Ceiling: 3000 feet AGL
Clouds: few clouds at 2000 feet AGL
broken clouds at 3000 feet AGL
broken clouds at 11000 feet AGL
Weather: no significant weather observed at this time

METAR text: RJAA 210530Z 06007KT 030V100 9999 FEW020 SCT030 BKN110 18/13 Q1011 BECMG 05007KT
Conditions at: RJAA (NARITA INTL , JP) observed 0530 UTC 21 April 2019
Temperature: 18.0°C (64°F)
Dewpoint: 13.0°C (55°F) [RH = 73%]
Pressure (altimeter): 29.85 inches Hg (1011.0 mb)
Winds: from the ENE (60 degrees) at 8 MPH (7 knots; 3.6 m/s)
Visibility: 6 or more miles (10+ km)
Ceiling: 11000 feet AGL
Clouds: few clouds at 2000 feet AGL
scattered clouds at 3000 feet AGL
broken clouds at 11000 feet AGL
Weather: no significant weather observed at this time

METAR text: RJAA 210500Z 07009KT 050V110 9999 FEW020 BKN110 BKN160 18/12 Q1011 BECMG 05008KT
Conditions at: RJAA (NARITA INTL , JP) observed 0500 UTC 21 April 2019
Temperature: 18.0°C (64°F)
Dewpoint: 12.0°C (54°F) [RH = 68%]
Pressure (altimeter): 29.85 inches Hg (1011.0 mb)
Winds: from the ENE (70 degrees) at 10 MPH (9 knots; 4.6 m/s)
Visibility: 6 or more miles (10+ km)
Ceiling: 11000 feet AGL
Clouds: few clouds at 2000 feet AGL
broken clouds at 11000 feet AGL
broken clouds at 16000 feet AGL
Weather: no significant weather observed at this time

METAR text: RJAA 210430Z 03010KT 360V070 9999 FEW020 BKN110 BKN/// 18/12 Q1012 NOSIG
Conditions at: RJAA (NARITA INTL , JP) observed 0430 UTC 21 April 2019
Temperature: 18.0°C (64°F)
Dewpoint: 12.0°C (54°F) [RH = 68%]
Pressure (altimeter): 29.88 inches Hg (1012.0 mb)
Winds: from the NNE (30 degrees) at 12 MPH (10 knots; 5.1 m/s)
Visibility: 6 or more miles (10+ km)
Ceiling: 11000 feet AGL
Clouds: few clouds at 2000 feet AGL
broken clouds at 11000 feet AGL
Weather: no significant weather observed at this time

METAR text: RJAA 210400Z 05009KT 020V100 9999 FEW020 BKN110 19/13 Q1012 NOSIG RMK 1CU020 7AC110 A2990
Conditions at: RJAA (NARITA INTL , JP) observed 0400 UTC 21 April 2019
Temperature: 19.0°C (66°F)
Dewpoint: 13.0°C (55°F) [RH = 68%]
Pressure (altimeter): 29.88 inches Hg (1012.0 mb)
Winds: from the NE (50 degrees) at 10 MPH (9 knots; 4.6 m/s)
Visibility: 6 or more miles (10+ km)
Ceiling: 11000 feet AGL
Clouds: few clouds at 2000 feet AGL
broken clouds at 11000 feet AGL
Weather: no significant weather observed at this time

METAR text: RJAA 210330Z 05009KT 360V100 9999 FEW020 SCT025 BKN110 18/13 Q1012 NOSIG RMK 1CU020 3SC025 7AC110 A2990
Conditions at: RJAA (NARITA INTL , JP) observed 0330 UTC 21 April 2019
Temperature: 18.0°C (64°F)
Dewpoint: 13.0°C (55°F) [RH = 73%]
Pressure (altimeter): 29.88 inches Hg (1012.0 mb)
Winds: from the NE (50 degrees) at 10 MPH (9 knots; 4.6 m/s)
Visibility: 6 or more miles (10+ km)
Ceiling: 11000 feet AGL
Clouds: few clouds at 2000 feet AGL
scattered clouds at 2500 feet AGL
broken clouds at 11000 feet AGL
Weather: no significant weather observed at this time

METAR text: RJAA 210300Z 05009KT 010V090 9999 FEW017 BKN020 BKN120 18/13 Q1012 NOSIG RMK 1CU017 5SC020 7AC120 A2991
Conditions at: RJAA (NARITA INTL , JP) observed 0300 UTC 21 April 2019
Temperature: 18.0°C (64°F)
Dewpoint: 13.0°C (55°F) [RH = 73%]
Pressure (altimeter): 29.88 inches Hg (1012.0 mb)
Winds: from the NE (50 degrees) at 10 MPH (9 knots; 4.6 m/s)
Visibility: 6 or more miles (10+ km)
Ceiling: 2000 feet AGL
Clouds: few clouds at 1700 feet AGL
broken clouds at 2000 feet AGL
broken clouds at 12000 feet AGL
Weather: no significant weather observed at this time

METAR text: RJAA 210230Z 04010KT 360V070 9999 FEW017 BKN020 BKN120 18/13 Q1013 NOSIG RMK 1CU017 5CU020 7AC120 A2992
Conditions at: RJAA (NARITA INTL , JP) observed 0230 UTC 21 April 2019
Temperature: 18.0°C (64°F)
Dewpoint: 13.0°C (55°F) [RH = 73%]
Pressure (altimeter): 29.91 inches Hg (1013.0 mb)
Winds: from the NE (40 degrees) at 12 MPH (10 knots; 5.1 m/s)
Visibility: 6 or more miles (10+ km)
Ceiling: 2000 feet AGL
Clouds: few clouds at 1700 feet AGL
broken clouds at 2000 feet AGL
broken clouds at 12000 feet AGL
Weather: no significant weather observed at this time

METAR text: RJAA 210200Z 04009KT 360V080 9999 FEW018 BKN025 BKN120 19/13 Q1013 BECMG 08006KT RMK 2CU018 5CU025 6AC120 A2993
Conditions at: RJAA (NARITA INTL , JP) observed 0200 UTC 21 April 2019
Temperature: 19.0°C (66°F)
Dewpoint: 13.0°C (55°F) [RH = 68%]
Pressure (altimeter): 29.91 inches Hg (1013.0 mb)
Winds: from the NE (40 degrees) at 10 MPH (9 knots; 4.6 m/s)
Visibility: 6 or more miles (10+ km)
Ceiling: 2500 feet AGL
Clouds: few clouds at 1800 feet AGL
broken clouds at 2500 feet AGL
broken clouds at 12000 feet AGL
Weather: no significant weather observed at this time

METAR text: RJAA 210130Z 03007KT 320V070 9999 FEW015 BKN020 19/14 Q1013 NOSIG
Conditions at: RJAA (NARITA INTL , JP) observed 0130 UTC 21 April 2019
Temperature: 19.0°C (66°F)
Dewpoint: 14.0°C (57°F) [RH = 73%]
Pressure (altimeter): 29.91 inches Hg (1013.0 mb)
Winds: from the NNE (30 degrees) at 8 MPH (7 knots; 3.6 m/s)
Visibility: 6 or more miles (10+ km)
Ceiling: 2000 feet AGL
Clouds: few clouds at 1500 feet AGL
broken clouds at 2000 feet AGL
Weather: no significant weather observed at this time

METAR text: RJAA 210100Z 03007KT 360V070 9999 FEW015 BKN/// 18/13 Q1014 NOSIG
Conditions at: RJAA (NARITA INTL , JP) observed 0100 UTC 21 April 2019
Temperature: 18.0°C (64°F)
Dewpoint: 13.0°C (55°F) [RH = 73%]
Pressure (altimeter): 29.94 inches Hg (1014.0 mb)
Winds: from the NNE (30 degrees) at 8 MPH (7 knots; 3.6 m/s)
Visibility: 6 or more miles (10+ km)
Ceiling: at least 12,000 feet AGL
Clouds: few clouds at 1500 feet AGL
Weather: no significant weather observed at this time

METAR text: RJAA 210030Z 01010KT 9999 FEW015 SCT/// 19/14 Q1014 NOSIG
Conditions at: RJAA (NARITA INTL , JP) observed 0030 UTC 21 April 2019
Temperature: 19.0°C (66°F)
Dewpoint: 14.0°C (57°F) [RH = 73%]
Pressure (altimeter): 29.94 inches Hg (1014.0 mb)
Winds: from the N (10 degrees) at 12 MPH (10 knots; 5.1 m/s)
Visibility: 6 or more miles (10+ km)
Ceiling: at least 12,000 feet AGL
Clouds: few clouds at 1500 feet AGL
Weather: no significant weather observed at this time

METAR text: RJAA 210013Z 35011KT 9999 FEW015 BKN020 18/13 Q1014 RMK 1CU015 6SC020 A2995
Conditions at: RJAA (NARITA INTL , JP) observed 0013 UTC 21 April 2019
Temperature: 18.0°C (64°F)
Dewpoint: 13.0°C (55°F) [RH = 73%]
Pressure (altimeter): 29.94 inches Hg (1014.0 mb)
Winds: from the N (350 degrees) at 13 MPH (11 knots; 5.7 m/s)
Visibility: 6 or more miles (10+ km)
Ceiling: 2000 feet AGL
Clouds: few clouds at 1500 feet AGL
broken clouds at 2000 feet AGL
Weather: no significant weather observed at this time

METAR text: RJAA 210000Z 10003KT 060V170 9999 FEW015 BKN020 18/13 Q1014 BECMG 05005KT RMK 1CU015 6SC020 A2995
Conditions at: RJAA (NARITA INTL , JP) observed 0000 UTC 21 April 2019
Temperature: 18.0°C (64°F)
Dewpoint: 13.0°C (55°F) [RH = 73%]
Pressure (altimeter): 29.94 inches Hg (1014.0 mb)
Winds: from the E (100 degrees) at 3 MPH (3 knots; 1.5 m/s)
Visibility: 6 or more miles (10+ km)
Ceiling: 2000 feet AGL
Clouds: few clouds at 1500 feet AGL
broken clouds at 2000 feet AGL
Weather: no significant weather observed at this time

METAR text: RJAA 202330Z VRB02KT 9999 FEW020 BKN/// 18/13 Q1014 BECMG 05005KT
Conditions at: RJAA (NARITA INTL , JP) observed 2330 UTC 20 April 2019
Temperature: 18.0°C (64°F)
Dewpoint: 13.0°C (55°F) [RH = 73%]
Pressure (altimeter): 29.94 inches Hg (1014.0 mb)
Winds: variable direction winds at 2 MPH (2 knots; 1.0 m/s)
Visibility: 6 or more miles (10+ km)
Ceiling: at least 12,000 feet AGL
Clouds: few clouds at 2000 feet AGL
Weather: no significant weather observed at this time

METAR text: RJAA 202300Z 07003KT 030V100 9999 FEW025 BKN/// 16/13 Q1014 BECMG 05005KT RMK 1CU025 A2995
Conditions at: RJAA (NARITA INTL , JP) observed 2300 UTC 20 April 2019
Temperature: 16.0°C (61°F)
Dewpoint: 13.0°C (55°F) [RH = 82%]
Pressure (altimeter): 29.94 inches Hg (1014.0 mb)
Winds: from the ENE (70 degrees) at 3 MPH (3 knots; 1.5 m/s)
Visibility: 6 or more miles (10+ km)
Ceiling: at least 12,000 feet AGL
Clouds: few clouds at 2500 feet AGL
Weather: no significant weather observed at this time

METAR text: RJAA 202230Z 03003KT 340V100 9999 FEW015 SCT025 BKN/// 15/12 Q1014 NOSIG
Conditions at: RJAA (NARITA INTL , JP) observed 2230 UTC 20 April 2019
Temperature: 15.0°C (59°F)
Dewpoint: 12.0°C (54°F) [RH = 82%]
Pressure (altimeter): 29.94 inches Hg (1014.0 mb)
Winds: from the NNE (30 degrees) at 3 MPH (3 knots; 1.5 m/s)
Visibility: 6 or more miles (10+ km)
Ceiling: at least 12,000 feet AGL
Clouds: few clouds at 1500 feet AGL
scattered clouds at 2500 feet AGL
Weather: no significant weather observed at this time

METAR text: RJAA 202200Z 02004KT 9999 FEW030 BKN/// 14/12 Q1014 NOSIG
Conditions at: RJAA (NARITA INTL , JP) observed 2200 UTC 20 April 2019
Temperature: 14.0°C (57°F)
Dewpoint: 12.0°C (54°F) [RH = 88%]
Pressure (altimeter): 29.94 inches Hg (1014.0 mb)
Winds: from the NNE (20 degrees) at 5 MPH (4 knots; 2.1 m/s)
Visibility: 6 or more miles (10+ km)
Ceiling: at least 12,000 feet AGL
Clouds: few clouds at 3000 feet AGL
Weather: no significant weather observed at this time

METAR text: RJAA 202130Z 08003KT 030V110 9999 FEW040 BKN/// 13/12 Q1014 BECMG 05005KT
Conditions at: RJAA (NARITA INTL , JP) observed 2130 UTC 20 April 2019
Temperature: 13.0°C (55°F)
Dewpoint: 12.0°C (54°F) [RH = 94%]
Pressure (altimeter): 29.94 inches Hg (1014.0 mb)
Winds: from the E (80 degrees) at 3 MPH (3 knots; 1.5 m/s)
Visibility: 6 or more miles (10+ km)
Ceiling: at least 12,000 feet AGL
Clouds: few clouds at 4000 feet AGL
Weather: no significant weather observed at this time

METAR text: RJAA 202100Z 06003KT 9999 FEW040 BKN/// 12/11 Q1014 BECMG 05005KT
Conditions at: RJAA (NARITA INTL , JP) observed 2100 UTC 20 April 2019
Temperature: 12.0°C (54°F)
Dewpoint: 11.0°C (52°F) [RH = 94%]
Pressure (altimeter): 29.94 inches Hg (1014.0 mb)
Winds: from the ENE (60 degrees) at 3 MPH (3 knots; 1.5 m/s)
Visibility: 6 or more miles (10+ km)
Ceiling: at least 12,000 feet AGL
Clouds: few clouds at 4000 feet AGL
Weather: no significant weather observed at this time

METAR text: RJAA 202030Z 03004KT 8000 FEW040 BKN/// 12/11 Q1014 NOSIG
Conditions at: RJAA (NARITA INTL , JP) observed 2030 UTC 20 April 2019
Temperature: 12.0°C (54°F)
Dewpoint: 11.0°C (52°F) [RH = 94%]
Pressure (altimeter): 29.94 inches Hg (1014.0 mb)
Winds: from the NNE (30 degrees) at 5 MPH (4 knots; 2.1 m/s)
Visibility: 5 miles ( 8 km)
Ceiling: at least 12,000 feet AGL
Clouds: few clouds at 4000 feet AGL
Weather: no significant weather observed at this time

METAR text: RJAA 202000Z 05003KT 8000 FEW004 SCT050 13/11 Q1014 NOSIG RMK 1ST004 4SC050 A2995
Conditions at: RJAA (NARITA INTL , JP) observed 2000 UTC 20 April 2019
Temperature: 13.0°C (55°F)
Dewpoint: 11.0°C (52°F) [RH = 88%]
Pressure (altimeter): 29.94 inches Hg (1014.0 mb)
Winds: from the NE (50 degrees) at 3 MPH (3 knots; 1.5 m/s)
Visibility: 5 miles ( 8 km)
Ceiling: at least 12,000 feet AGL
Clouds: few clouds at 400 feet AGL
scattered clouds at 5000 feet AGL
Weather: no significant weather observed at this time

METAR text: RJAA 201930Z 02005KT 9999 -RA FEW020 SCT030 BKN050 13/11 Q1014 NOSIG RMK 1CU020 3SC030 7SC050 A2994
Conditions at: RJAA (NARITA INTL , JP) observed 1930 UTC 20 April 2019
Temperature: 13.0°C (55°F)
Dewpoint: 11.0°C (52°F) [RH = 88%]
Pressure (altimeter): 29.94 inches Hg (1014.0 mb)
Winds: from the NNE (20 degrees) at 6 MPH (5 knots; 2.6 m/s)
Visibility: 6 or more miles (10+ km)
Ceiling: 5000 feet AGL
Clouds: few clouds at 2000 feet AGL
scattered clouds at 3000 feet AGL
broken clouds at 5000 feet AGL
Weather: -RA  (light rain)

METAR text: RJAA 201900Z 02005KT 9999 -RA FEW020 BKN050 13/11 Q1013 NOSIG RMK 1CU020 7SC050 A2994
Conditions at: RJAA (NARITA INTL , JP) observed 1900 UTC 20 April 2019
Temperature: 13.0°C (55°F)
Dewpoint: 11.0°C (52°F) [RH = 88%]
Pressure (altimeter): 29.91 inches Hg (1013.0 mb)
Winds: from the NNE (20 degrees) at 6 MPH (5 knots; 2.6 m/s)
Visibility: 6 or more miles (10+ km)
Ceiling: 5000 feet AGL
Clouds: few clouds at 2000 feet AGL
broken clouds at 5000 feet AGL
Weather: -RA  (light rain)

METAR text: RJAA 201830Z 03006KT 9999 -RA FEW020 BKN050 13/11 Q1013 NOSIG RMK 1CU020 7SC050 A2994
Conditions at: RJAA (NARITA INTL , JP) observed 1830 UTC 20 April 2019
Temperature: 13.0°C (55°F)
Dewpoint: 11.0°C (52°F) [RH = 88%]
Pressure (altimeter): 29.91 inches Hg (1013.0 mb)
Winds: from the NNE (30 degrees) at 7 MPH (6 knots; 3.1 m/s)
Visibility: 6 or more miles (10+ km)
Ceiling: 5000 feet AGL
Clouds: few clouds at 2000 feet AGL
broken clouds at 5000 feet AGL
Weather: -RA  (light rain)

METAR text: RJAA 201800Z 34001KT 9999 FEW020 BKN060 14/11 Q1013 NOSIG RMK 1CU020 7SC060 A2994
Conditions at: RJAA (NARITA INTL , JP) observed 1800 UTC 20 April 2019
Temperature: 14.0°C (57°F)
Dewpoint: 11.0°C (52°F) [RH = 82%]
Pressure (altimeter): 29.91 inches Hg (1013.0 mb)
Winds: from the NNW (340 degrees) at 1 MPH (1 knots; 0.5 m/s)
Visibility: 6 or more miles (10+ km)
Ceiling: 6000 feet AGL
Clouds: few clouds at 2000 feet AGL
broken clouds at 6000 feet AGL
Weather: no significant weather observed at this time

METAR text: RJAA 201730Z 00000KT 9999 FEW020 BKN060 13/11 Q1013 NOSIG RMK 1CU020 7SC060 A2994
Conditions at: RJAA (NARITA INTL , JP) observed 1730 UTC 20 April 2019
Temperature: 13.0°C (55°F)
Dewpoint: 11.0°C (52°F) [RH = 88%]
Pressure (altimeter): 29.91 inches Hg (1013.0 mb)
Winds: calm
Visibility: 6 or more miles (10+ km)
Ceiling: 6000 feet AGL
Clouds: few clouds at 2000 feet AGL
broken clouds at 6000 feet AGL
Weather: no significant weather observed at this time

METAR text: RJAA 201700Z 16001KT 9999 FEW020 BKN050 13/11 Q1014 NOSIG RMK 1CU020 7SC050 A2994
Conditions at: RJAA (NARITA INTL , JP) observed 1700 UTC 20 April 2019
Temperature: 13.0°C (55°F)
Dewpoint: 11.0°C (52°F) [RH = 88%]
Pressure (altimeter): 29.94 inches Hg (1014.0 mb)
Winds: from the SSE (160 degrees) at 1 MPH (1 knots; 0.5 m/s)
Visibility: 6 or more miles (10+ km)
Ceiling: 5000 feet AGL
Clouds: few clouds at 2000 feet AGL
broken clouds at 5000 feet AGL
Weather: no significant weather observed at this time

METAR text: RJAA 201630Z 00000KT 9999 FEW020 BKN050 14/10 Q1014 NOSIG RMK 1CU020 7SC050 A2994
Conditions at: RJAA (NARITA INTL , JP) observed 1630 UTC 20 April 2019
Temperature: 14.0°C (57°F)
Dewpoint: 10.0°C (50°F) [RH = 77%]
Pressure (altimeter): 29.94 inches Hg (1014.0 mb)
Winds: calm
Visibility: 6 or more miles (10+ km)
Ceiling: 5000 feet AGL
Clouds: few clouds at 2000 feet AGL
broken clouds at 5000 feet AGL
Weather: no significant weather observed at this time

METAR text: RJAA 201600Z VRB01KT 9999 FEW020 BKN030 13/11 Q1014 NOSIG RMK 1CU020 7SC030 A2995
Conditions at: RJAA (NARITA INTL , JP) observed 1600 UTC 20 April 2019
Temperature: 13.0°C (55°F)
Dewpoint: 11.0°C (52°F) [RH = 88%]
Pressure (altimeter): 29.94 inches Hg (1014.0 mb)
Winds: variable direction winds at 1 MPH (1 knots; 0.5 m/s)
Visibility: 6 or more miles (10+ km)
Ceiling: 3000 feet AGL
Clouds: few clouds at 2000 feet AGL
broken clouds at 3000 feet AGL
Weather: no significant weather observed at this time

METAR text: RJAA 201530Z 21002KT 9999 -RA FEW020 BKN030 13/10 Q1014 NOSIG RMK 1CU020 7SC030 A2996
Conditions at: RJAA (NARITA INTL , JP) observed 1530 UTC 20 April 2019
Temperature: 13.0°C (55°F)
Dewpoint: 10.0°C (50°F) [RH = 82%]
Pressure (altimeter): 29.94 inches Hg (1014.0 mb)
Winds: from the SSW (210 degrees) at 2 MPH (2 knots; 1.0 m/s)
Visibility: 6 or more miles (10+ km)
Ceiling: 3000 feet AGL
Clouds: few clouds at 2000 feet AGL
broken clouds at 3000 feet AGL
Weather: -RA  (light rain)

METAR text: RJAA 201500Z VRB02KT 9999 FEW020 BKN030 13/10 Q1014 NOSIG RMK 1CU020 7SC030 A2997
Conditions at: RJAA (NARITA INTL , JP) observed 1500 UTC 20 April 2019
Temperature: 13.0°C (55°F)
Dewpoint: 10.0°C (50°F) [RH = 82%]
Pressure (altimeter): 29.94 inches Hg (1014.0 mb)
Winds: variable direction winds at 2 MPH (2 knots; 1.0 m/s)
Visibility: 6 or more miles (10+ km)
Ceiling: 3000 feet AGL
Clouds: few clouds at 2000 feet AGL
broken clouds at 3000 feet AGL
Weather: no significant weather observed at this time

METAR text: RJAA 201430Z 11003KT 020V150 9999 FEW020 BKN030 13/10 Q1015 NOSIG RMK 1CU020 7SC030 A2998
Conditions at: RJAA (NARITA INTL , JP) observed 1430 UTC 20 April 2019
Temperature: 13.0°C (55°F)
Dewpoint: 10.0°C (50°F) [RH = 82%]
Pressure (altimeter): 29.97 inches Hg (1015.0 mb)
Winds: from the ESE (110 degrees) at 3 MPH (3 knots; 1.5 m/s)
Visibility: 6 or more miles (10+ km)
Ceiling: 3000 feet AGL
Clouds: few clouds at 2000 feet AGL
broken clouds at 3000 feet AGL
Weather: no significant weather observed at this time

Forecast for: RJAA (NARITA INTL , JP)
Text: TAF RJAA 212307Z 2200/2306 04006KT 9999 FEW030
Forecast period: 0000 to 0200 UTC 22 April 2019
Forecast type: FROM: standard forecast or significant change
Winds: from the NE (40 degrees) at 7 MPH (6 knots; 3.1 m/s)
Visibility: 6 or more miles 10+ km)
Ceiling: at least 12,000 feet AGL
Clouds: few clouds at 3000 feet AGL
Weather: no significant weather forecast for this period
Text: BECMG 2202/2204 10010KT
Forecast period: 0200 to 0900 UTC 22 April 2019
Forecast type: BECOMING: Conditions expected to become as follows by 0400 UTC 22 April 2019
Winds: from the E (100 degrees) at 12 MPH (10 knots; 5.1 m/s)
Visibility: 6 or more miles 10+ km)
Ceiling: at least 12,000 feet AGL
Clouds: few clouds at 3000 feet AGL
Weather: no significant weather forecast for this period
Text: BECMG 2209/2211 04008KT
Forecast period: 0900 UTC 22 April 2019 to 0000 UTC 23 April 2019
Forecast type: BECOMING: Conditions expected to become as follows by 1100 UTC 22 April 2019
Winds: from the NE (40 degrees) at 9 MPH (8 knots; 4.1 m/s)
Visibility: 6 or more miles 10+ km)
Ceiling: at least 12,000 feet AGL
Clouds: few clouds at 3000 feet AGL
Weather: no significant weather forecast for this period
Text: BECMG 2300/2303 12010KT
Forecast period: 0000 to 0600 UTC 23 April 2019
Forecast type: BECOMING: Conditions expected to become as follows by 0300 UTC 23 April 2019
Winds: from the ESE (120 degrees) at 12 MPH (10 knots; 5.1 m/s)
Visibility: 6 or more miles 10+ km)
Ceiling: at least 12,000 feet AGL
Clouds: few clouds at 3000 feet AGL
Weather: no significant weather forecast for this period